Time;durP1;ratioP1;P1;durP2;ratioP2;P2;SDS_P1;SDS_P2;PMS_P1;PMS_P2;Temp;Humidity;BMP_temperature;BMP_pressure;BME280_temperature;BME280_humidity;BME280_pressure;Samples;Min_cycle;Max_cycle;Signal;HPM_P1;HPM_P2
2023/06/04 00:00:05;;;;;;;5.68;5.18;;;22.40;45.50;;;;;;5020444;28;20254;-81
2023/06/04 00:02:32;;;;;;;6.57;5.43;;;22.30;45.40;;;;;;5037248;28;20192;-81
2023/06/04 00:04:59;;;;;;;6.00;5.40;;;22.30;46.20;;;;;;5036285;28;20254;-80
2023/06/04 00:07:28;;;;;;;5.30;4.80;;;22.30;46.20;;;;;;5036179;28;20203;-80
2023/06/04 00:09:55;;;;;;;9.23;5.50;;;22.30;46.20;;;;;;5034470;28;20207;-80
2023/06/04 00:12:23;;;;;;;5.93;5.25;;;22.30;46.30;;;;;;5034317;28;20196;-80
2023/06/04 00:14:50;;;;;;;6.45;5.40;;;22.30;46.40;;;;;;5020409;28;20216;-80
2023/06/04 00:17:17;;;;;;;5.25;4.75;;;22.30;46.40;;;;;;5036414;28;20247;-81
2023/06/04 00:19:44;;;;;;;5.82;5.20;;;22.30;46.50;;;;;;5036679;28;20207;-80
2023/06/04 00:22:11;;;;;;;6.30;5.03;;;22.30;46.50;;;;;;5036562;28;20257;-80
2023/06/04 00:24:41;;;;;;;5.40;4.90;;;22.30;46.60;;;;;;5037480;28;20212;-81
2023/06/04 00:27:08;;;;;;;5.43;4.80;;;22.20;46.50;;;;;;5037037;28;20220;-81
2023/06/04 00:29:36;;;;;;;6.32;5.72;;;22.20;46.70;;;;;;5038186;28;20200;-80
2023/06/04 00:32:03;;;;;;;5.65;5.07;;;22.20;46.70;;;;;;5036881;28;20733;-80
2023/06/04 00:34:30;;;;;;;5.40;4.90;;;22.20;46.90;;;;;;5036985;28;20250;-80
2023/06/04 00:36:58;;;;;;;4.97;4.47;;;22.20;46.90;;;;;;5020901;28;20219;-80
2023/06/04 00:39:25;;;;;;;5.40;4.90;;;22.10;46.80;;;;;;5036925;28;20598;-80
2023/06/04 00:41:54;;;;;;;6.47;5.25;;;22.10;46.80;;;;;;5037615;28;20208;-80
2023/06/04 00:44:23;;;;;;;5.63;5.10;;;22.20;47.10;;;;;;5036652;28;20709;-81
2023/06/04 00:46:50;;;;;;;5.45;4.95;;;22.10;47.00;;;;;;5044184;28;20252;-81
2023/06/04 00:49:18;;;;;;;5.93;5.35;;;22.10;47.10;;;;;;5049148;28;20196;-81
2023/06/04 00:51:45;;;;;;;5.30;4.80;;;22.10;47.10;;;;;;5047101;28;20210;-81
2023/06/04 00:54:12;;;;;;;5.38;4.88;;;22.10;47.10;;;;;;5048569;28;20246;-81
2023/06/04 00:56:39;;;;;;;5.57;5.07;;;22.10;47.20;;;;;;5050094;28;20215;-81
2023/06/04 00:59:09;;;;;;;5.00;4.60;;;22.10;47.30;;;;;;5049856;28;20200;-80
2023/06/04 01:01:40;;;;;;;5.28;4.78;;;22.10;47.30;;;;;;5048821;28;20264;-80
2023/06/04 01:04:09;;;;;;;5.65;5.10;;;22.00;47.30;;;;;;5042604;28;20278;-80
2023/06/04 01:06:38;;;;;;;5.65;5.07;;;22.00;47.30;;;;;;5033795;28;20259;-80
2023/06/04 01:09:05;;;;;;;5.35;4.85;;;22.00;47.40;;;;;;5033394;28;20200;-80
2023/06/04 01:11:34;;;;;;;5.25;4.75;;;22.00;47.40;;;;;;5033435;28;20747;-80
2023/06/04 01:14:01;;;;;;;5.13;4.68;;;22.00;47.40;;;;;;5033641;28;20220;-80
2023/06/04 01:16:34;;;;;;;5.45;4.95;;;21.90;47.30;;;;;;5036431;28;20207;-80
2023/06/04 01:19:02;;;;;;;5.47;5.00;;;22.00;47.40;;;;;;5038488;28;20263;-80
2023/06/04 01:21:30;;;;;;;5.60;4.97;;;22.00;47.40;;;;;;5043349;28;20267;-80
2023/06/04 01:23:59;;;;;;;5.10;4.60;;;22.00;47.40;;;;;;5020535;28;20727;-80
2023/06/04 01:26:26;;;;;;;7.22;5.13;;;22.00;47.50;;;;;;5036327;28;20192;-80
2023/06/04 01:28:54;;;;;;;5.28;4.78;;;21.90;47.40;;;;;;5037831;28;20196;-80
2023/06/04 01:31:24;;;;;;;6.40;5.43;;;21.90;47.50;;;;;;5039761;28;20223;-80
2023/06/04 01:33:53;;;;;;;5.32;4.72;;;21.90;47.60;;;;;;5039316;28;20258;-80
2023/06/04 01:36:21;;;;;;;5.40;4.80;;;21.90;47.60;;;;;;5038512;28;20573;-79
2023/06/04 01:38:48;;;;;;;5.38;4.90;;;21.90;47.50;;;;;;5036410;28;20215;-80
2023/06/04 01:41:15;;;;;;;5.80;5.20;;;21.90;47.60;;;;;;5036310;28;20204;-80
2023/06/04 01:43:42;;;;;;;5.90;5.30;;;21.90;47.70;;;;;;5020367;28;20204;-80
2023/06/04 01:46:09;;;;;;;5.30;4.80;;;21.80;48.30;;;;;;5039061;28;20208;-80
2023/06/04 01:48:37;;;;;;;5.03;4.60;;;21.80;47.70;;;;;;5038677;28;20192;-80
2023/06/04 01:51:06;;;;;;;5.10;4.70;;;21.80;47.70;;;;;;5037762;28;20286;-80
2023/06/04 01:53:33;;;;;;;4.82;4.40;;;21.80;47.70;;;;;;5037494;28;20200;-80
2023/06/04 01:56:01;;;;;;;5.43;4.93;;;21.80;47.90;;;;;;5038285;28;20219;-80
2023/06/04 01:58:28;;;;;;;4.88;4.38;;;21.80;47.90;;;;;;5038318;28;20262;-81
2023/06/04 02:00:59;;;;;;;4.65;4.25;;;21.80;47.90;;;;;;5035761;28;20211;-81
2023/06/04 02:03:27;;;;;;;5.18;4.68;;;21.80;47.90;;;;;;5036034;28;20615;-81
2023/06/04 02:05:54;;;;;;;5.20;4.70;;;21.80;48.00;;;;;;5036246;28;20297;-81
2023/06/04 02:08:25;;;;;;;5.22;4.72;;;21.70;48.00;;;;;;5036052;28;20646;-81
2023/06/04 02:10:52;;;;;;;5.13;4.63;;;21.70;48.00;;;;;;5036820;28;20200;-81
2023/06/04 02:13:20;;;;;;;5.00;4.57;;;21.70;48.10;;;;;;5035795;28;20577;-81
2023/06/04 02:15:46;;;;;;;5.00;4.50;;;21.70;48.10;;;;;;5036461;28;20277;-81
2023/06/04 02:18:16;;;;;;;4.88;4.47;;;21.70;48.20;;;;;;5035838;28;20266;-81
2023/06/04 02:20:43;;;;;;;4.55;4.15;;;21.70;48.20;;;;;;5036130;28;20609;-80
2023/06/04 02:23:11;;;;;;;4.70;4.30;;;21.70;48.20;;;;;;5035312;28;20206;-80
2023/06/04 02:25:39;;;;;;;4.75;4.22;;;21.70;48.30;;;;;;5035234;28;20247;-81
2023/06/04 02:28:07;;;;;;;4.43;4.03;;;21.60;48.30;;;;;;5036187;28;20554;-81
2023/06/04 02:30:34;;;;;;;4.78;4.38;;;21.60;48.30;;;;;;5035589;28;20200;-80
2023/06/04 02:33:01;;;;;;;4.70;4.30;;;21.60;48.40;;;;;;5018754;28;20192;-81
2023/06/04 02:35:29;;;;;;;4.57;4.18;;;21.60;48.30;;;;;;5018709;28;20571;-81
2023/06/04 02:37:58;;;;;;;4.60;4.20;;;21.60;48.40;;;;;;5035135;28;20653;-81
2023/06/04 02:40:25;;;;;;;4.97;4.40;;;21.50;48.40;;;;;;5033999;28;20240;-81
2023/06/04 02:42:53;;;;;;;5.20;4.10;;;21.60;48.50;;;;;;5034700;28;20200;-81
2023/06/04 02:45:21;;;;;;;5.15;4.65;;;21.60;48.50;;;;;;5035229;28;20220;-81
2023/06/04 02:47:48;;;;;;;4.50;4.10;;;21.50;48.50;;;;;;5035010;28;20284;-81
2023/06/04 02:50:15;;;;;;;4.88;4.47;;;21.60;49.20;;;;;;5035412;28;20231;-81
2023/06/04 02:52:43;;;;;;;4.50;4.10;;;21.50;48.60;;;;;;5035661;28;20204;-81
2023/06/04 02:55:12;;;;;;;4.50;4.10;;;21.50;48.60;;;;;;5034967;28;20220;-81
2023/06/04 02:57:41;;;;;;;4.18;3.88;;;21.50;48.60;;;;;;5035588;28;20312;-81
2023/06/04 03:00:12;;;;;;;4.30;3.90;;;21.50;48.60;;;;;;5035679;28;20223;-81
2023/06/04 03:02:41;;;;;;;4.60;4.20;;;21.50;48.60;;;;;;5035710;28;20204;-81
2023/06/04 03:05:10;;;;;;;4.60;4.20;;;21.50;48.60;;;;;;5036037;28;20581;-81
2023/06/04 03:07:38;;;;;;;4.50;4.10;;;21.50;48.60;;;;;;5050185;28;20247;-81
2023/06/04 03:10:06;;;;;;;4.93;4.43;;;21.50;48.60;;;;;;5039035;28;20212;-81
2023/06/04 03:12:34;;;;;;;4.80;4.28;;;21.40;48.50;;;;;;5039138;28;20199;-81
2023/06/04 03:15:01;;;;;;;4.65;4.25;;;21.50;48.50;;;;;;5039948;28;20223;-81
2023/06/04 03:17:32;;;;;;;4.70;4.30;;;21.50;48.50;;;;;;5039079;28;20211;-81
2023/06/04 03:19:59;;;;;;;4.82;4.43;;;21.50;48.60;;;;;;5042783;28;20196;-80
2023/06/04 03:22:28;;;;;;;4.45;4.05;;;21.50;48.50;;;;;;5039660;28;20207;-81
2023/06/04 03:24:55;;;;;;;4.55;4.15;;;21.50;48.40;;;;;;5034946;28;20310;-81
2023/06/04 03:27:22;;;;;;;4.78;4.28;;;21.50;48.30;;;;;;5034378;28;20196;-81
2023/06/04 03:29:49;;;;;;;4.57;4.18;;;21.60;48.30;;;;;;5034354;28;20214;-81
2023/06/04 03:32:18;;;;;;;4.38;3.97;;;21.60;48.20;;;;;;5035051;28;20623;-81
2023/06/04 03:34:48;;;;;;;4.40;4.00;;;21.60;48.00;;;;;;5034450;28;20220;-81
2023/06/04 03:37:15;;;;;;;5.22;4.32;;;21.70;48.00;;;;;;5033933;28;20219;-81
2023/06/04 03:39:42;;;;;;;4.22;3.92;;;21.70;47.80;;;;;;5057179;22;20578;-79
2023/06/04 03:42:12;;;;;;;4.15;3.85;;;21.70;47.70;;;;;;5034569;28;20199;-79
2023/06/04 03:44:40;;;;;;;4.53;4.13;;;21.80;47.70;;;;;;5034048;28;20220;-79
2023/06/04 03:47:08;;;;;;;4.70;4.30;;;21.80;47.60;;;;;;5017543;28;20666;-77
2023/06/04 03:49:35;;;;;;;4.00;3.70;;;21.90;47.50;;;;;;5034355;28;20196;-77
2023/06/04 03:52:04;;;;;;;4.25;3.85;;;21.90;47.50;;;;;;5033817;28;20199;-77
2023/06/04 03:54:32;;;;;;;3.95;3.65;;;21.90;47.50;;;;;;5033682;28;20228;-77
2023/06/04 03:57:00;;;;;;;4.43;4.03;;;21.90;47.30;;;;;;5034389;28;20266;-77
2023/06/04 03:59:27;;;;;;;4.68;4.25;;;22.00;47.40;;;;;;5034072;28;20315;-77
2023/06/04 04:01:54;;;;;;;4.15;3.72;;;22.00;47.40;;;;;;5033732;28;20666;-77
2023/06/04 04:04:22;;;;;;;4.22;3.92;;;22.00;47.40;;;;;;5017607;28;20228;-77
2023/06/04 04:06:49;;;;;;;4.28;3.88;;;22.00;47.40;;;;;;5017258;28;20258;-77
2023/06/04 04:09:18;;;;;;;4.20;3.80;;;22.00;47.40;;;;;;5033738;28;20246;-77
2023/06/04 04:11:46;;;;;;;3.80;3.50;;;22.00;47.40;;;;;;5034442;28;20287;-77
2023/06/04 04:14:13;;;;;;;4.40;4.00;;;22.00;47.30;;;;;;5033573;28;20227;-77
2023/06/04 04:16:41;;;;;;;4.22;3.83;;;22.00;47.30;;;;;;5033882;28;20666;-77
2023/06/04 04:19:09;;;;;;;5.03;3.90;;;22.00;47.40;;;;;;5033593;28;20212;-77
2023/06/04 04:21:37;;;;;;;4.57;4.18;;;22.00;47.40;;;;;;5033019;28;20204;-77
2023/06/04 04:24:06;;;;;;;4.22;3.80;;;22.00;47.40;;;;;;5017263;28;20323;-77
2023/06/04 04:26:35;;;;;;;4.20;3.80;;;22.00;47.40;;;;;;5017004;28;20200;-77
2023/06/04 04:29:03;;;;;;;3.83;3.53;;;22.00;47.40;;;;;;5033301;28;20287;-77
2023/06/04 04:31:37;;;;;;;4.30;3.90;;;22.00;47.40;;;;;;5017575;28;20206;-77
2023/06/04 04:34:08;;;;;;;4.13;3.83;;;22.00;47.40;;;;;;5033614;28;20216;-77
2023/06/04 04:36:40;;;;;;;3.80;3.50;;;22.10;47.50;;;;;;5034642;28;20192;-77
2023/06/04 04:39:09;;;;;;;4.18;3.83;;;22.00;47.40;;;;;;5034435;28;20212;-77
2023/06/04 04:41:38;;;;;;;4.03;3.70;;;22.00;47.10;;;;;;5033940;28;20266;-77
2023/06/04 04:44:05;;;;;;;4.10;3.70;;;22.00;47.20;;;;;;5033345;28;20302;-77
2023/06/04 04:46:33;;;;;;;3.83;3.42;;;22.10;47.30;;;;;;5033153;28;20262;-77
2023/06/04 04:49:00;;;;;;;3.92;3.63;;;22.10;47.10;;;;;;5017291;28;20570;-77
2023/06/04 04:51:27;;;;;;;4.00;3.67;;;22.30;46.90;;;;;;5033950;28;20717;-77
2023/06/04 04:53:56;;;;;;;4.15;3.75;;;22.40;46.70;;;;;;5033572;28;20227;-77
2023/06/04 04:56:26;;;;;;;3.75;3.45;;;22.60;46.30;;;;;;5032988;28;20192;-77
2023/06/04 04:58:54;;;;;;;3.50;3.30;;;22.70;46.00;;;;;;5033636;28;20314;-77
2023/06/04 05:01:23;;;;;;;3.75;3.45;;;22.90;45.80;;;;;;5033738;28;20199;-77
2023/06/04 05:03:51;;;;;;;3.70;3.40;;;23.00;45.40;;;;;;5036601;28;20192;-77
2023/06/04 05:06:18;;;;;;;4.18;3.78;;;23.20;45.10;;;;;;5038460;28;20200;-77
2023/06/04 05:08:46;;;;;;;3.65;3.35;;;23.40;44.90;;;;;;5021358;28;20668;-77
2023/06/04 05:11:16;;;;;;;3.67;3.38;;;23.50;44.60;;;;;;5037098;28;20196;-77
2023/06/04 05:13:44;;;;;;;3.90;3.22;;;23.60;44.30;;;;;;5037777;28;20228;-77
2023/06/04 05:16:14;;;;;;;4.28;3.30;;;23.70;44.20;;;;;;5040097;28;20613;-77
2023/06/04 05:18:44;;;;;;;3.58;3.30;;;23.80;43.90;;;;;;5041063;28;20694;-77
2023/06/04 05:21:13;;;;;;;3.60;3.30;;;24.00;43.80;;;;;;5044182;28;20192;-77
2023/06/04 05:23:48;;;;;;;3.92;3.55;;;24.10;43.60;;;;;;5055700;28;20191;-77
2023/06/04 05:26:17;;;;;;;3.45;3.15;;;24.20;43.50;;;;;;5021631;28;20188;-78
2023/06/04 05:28:45;;;;;;;3.50;3.20;;;24.20;43.20;;;;;;5036523;28;20193;-78
2023/06/04 05:31:18;;;;;;;3.80;3.50;;;24.30;43.10;;;;;;5036071;28;20296;-78
2023/06/04 05:33:45;;;;;;;3.80;3.50;;;24.40;42.90;;;;;;5035982;28;20192;-78
2023/06/04 05:36:16;;;;;;;3.47;3.17;;;24.50;42.80;;;;;;5020118;28;20631;-78
2023/06/04 05:38:56;;;;;;;3.47;3.20;;;24.60;42.70;;;;;;5036329;28;20283;-78
2023/06/04 05:41:25;;;;;;;3.80;3.50;;;24.60;42.60;;;;;;5036543;28;20282;-78
2023/06/04 05:43:53;;;;;;;3.50;3.15;;;24.70;42.40;;;;;;5036170;28;20195;-79
2023/06/04 05:46:21;;;;;;;3.78;3.40;;;24.70;42.30;;;;;;5036966;28;20188;-79
2023/06/04 05:48:50;;;;;;;3.60;3.30;;;24.80;42.20;;;;;;5038251;28;20196;-79
2023/06/04 05:51:18;;;;;;;3.28;3.03;;;24.90;42.10;;;;;;5036006;28;20207;-79
2023/06/04 05:53:46;;;;;;;3.50;3.20;;;24.90;42.00;;;;;;5036050;28;20192;-77
2023/06/04 05:56:13;;;;;;;3.30;3.03;;;24.90;41.80;;;;;;5036078;28;20200;-77
2023/06/04 05:58:41;;;;;;;3.42;3.13;;;24.90;41.80;;;;;;5036014;28;20697;-77
2023/06/04 06:01:09;;;;;;;2.90;2.70;;;24.90;41.80;;;;;;5019320;28;20208;-77
2023/06/04 06:03:37;;;;;;;3.00;2.80;;;24.90;41.80;;;;;;5035618;28;20200;-77
2023/06/04 06:06:05;;;;;;;3.00;2.80;;;24.90;42.00;;;;;;5035326;28;20662;-77
2023/06/04 06:08:32;;;;;;;3.60;3.30;;;24.90;41.80;;;;;;5018872;28;20619;-78
2023/06/04 06:11:00;;;;;;;3.65;3.22;;;24.90;41.50;;;;;;5035207;28;20192;-79
2023/06/04 06:13:27;;;;;;;3.58;3.28;;;25.00;41.40;;;;;;5035830;28;20270;-79
2023/06/04 06:15:57;;;;;;;3.45;3.10;;;25.10;41.20;;;;;;5035092;28;20240;-78
2023/06/04 06:18:24;;;;;;;3.53;3.22;;;25.30;40.80;;;;;;5035466;28;20219;-79
2023/06/04 06:20:52;;;;;;;3.05;2.83;;;25.40;40.80;;;;;;5034944;28;20200;-79
2023/06/04 06:23:22;;;;;;;2.97;2.78;;;25.50;40.50;;;;;;5034905;28;20250;-79
2023/06/04 06:25:51;;;;;;;3.40;3.10;;;25.60;40.20;;;;;;5035226;28;20325;-79
2023/06/04 06:28:25;;;;;;;3.53;3.22;;;25.70;40.10;;;;;;5035621;28;20283;-79
2023/06/04 06:30:52;;;;;;;3.50;3.20;;;25.70;39.70;;;;;;5035480;28;20227;-78
2023/06/04 06:33:21;;;;;;;3.10;2.90;;;25.80;39.60;;;;;;5036346;28;20607;-79
2023/06/04 06:35:48;;;;;;;3.20;3.00;;;25.90;39.60;;;;;;5034895;28;20224;-78
2023/06/04 06:38:17;;;;;;;3.03;2.80;;;25.90;39.50;;;;;;5035486;28;20192;-78
2023/06/04 06:40:44;;;;;;;3.42;3.10;;;25.90;39.60;;;;;;5035336;28;20227;-79
2023/06/04 06:43:12;;;;;;;3.33;3.03;;;25.80;39.60;;;;;;5035874;28;20193;-78
2023/06/04 06:45:39;;;;;;;3.42;3.13;;;25.80;39.80;;;;;;5034560;28;20220;-78
2023/06/04 06:48:06;;;;;;;3.50;3.10;;;25.80;39.70;;;;;;5034908;28;20202;-79
2023/06/04 06:50:35;;;;;;;3.25;3.05;;;25.90;39.50;;;;;;5018974;28;20204;-79
2023/06/04 06:53:02;;;;;;;3.08;2.80;;;25.90;39.50;;;;;;5035426;28;20370;-79
2023/06/04 06:55:31;;;;;;;3.50;3.20;;;26.00;39.30;;;;;;5036206;28;20240;-79
2023/06/04 06:57:59;;;;;;;3.40;3.10;;;26.10;39.00;;;;;;5034245;28;20211;-79
2023/06/04 07:00:27;;;;;;;3.38;3.08;;;26.20;38.90;;;;;;5034160;28;20223;-79
2023/06/04 07:02:54;;;;;;;3.40;3.10;;;26.20;38.90;;;;;;5034351;28;20195;-79
2023/06/04 07:05:22;;;;;;;3.15;2.95;;;26.20;38.80;;;;;;5033929;28;20216;-79
2023/06/04 07:07:49;;;;;;;3.33;3.03;;;26.20;38.90;;;;;;5035035;28;20669;-79
2023/06/04 07:10:16;;;;;;;2.92;2.70;;;26.20;38.90;;;;;;5034131;28;20333;-78
2023/06/04 07:12:44;;;;;;;2.95;2.75;;;26.10;38.70;;;;;;5034002;28;20228;-78
2023/06/04 07:15:12;;;;;;;3.00;2.80;;;26.20;38.70;;;;;;5033822;28;20216;-79
2023/06/04 07:17:39;;;;;;;3.33;3.08;;;26.20;38.80;;;;;;5033930;28;20282;-79
2023/06/04 07:20:09;;;;;;;3.33;3.03;;;26.20;38.90;;;;;;5017736;28;20219;-79
2023/06/04 07:22:36;;;;;;;3.47;3.15;;;26.20;38.70;;;;;;5034079;28;20562;-79
2023/06/04 07:25:03;;;;;;;3.45;2.85;;;26.30;38.60;;;;;;5034068;28;20274;-79
2023/06/04 07:27:30;;;;;;;3.50;3.15;;;26.40;38.40;;;;;;5033786;28;20286;-79
2023/06/04 07:29:58;;;;;;;2.88;2.67;;;26.50;38.50;;;;;;5034170;28;20298;-79
2023/06/04 07:32:26;;;;;;;2.85;2.65;;;26.50;38.50;;;;;;5017844;28;20227;-79
2023/06/04 07:34:53;;;;;;;3.42;3.13;;;26.50;38.20;;;;;;5034310;28;20219;-79
2023/06/04 07:37:20;;;;;;;3.50;3.20;;;26.60;37.90;;;;;;5034664;28;20191;-78
2023/06/04 07:39:47;;;;;;;3.28;2.97;;;26.70;38.00;;;;;;5034560;28;20569;-78
2023/06/04 07:42:14;;;;;;;3.10;2.90;;;26.70;37.90;;;;;;5034313;28;20196;-78
2023/06/04 07:44:41;;;;;;;3.03;2.83;;;26.80;37.80;;;;;;5034036;28;20228;-78
2023/06/04 07:47:09;;;;;;;3.00;2.70;;;26.90;37.70;;;;;;5033354;28;20302;-78
2023/06/04 07:49:36;;;;;;;2.92;2.72;;;26.90;37.70;;;;;;5035030;28;20188;-78
2023/06/04 07:52:04;;;;;;;3.10;2.90;;;27.00;37.60;;;;;;5017534;28;20216;-79
2023/06/04 07:54:33;;;;;;;3.13;2.83;;;27.10;37.40;;;;;;5033033;28;20250;-79
2023/06/04 07:57:00;;;;;;;3.00;2.80;;;27.10;37.30;;;;;;5033858;28;20200;-79
2023/06/04 07:59:29;;;;;;;3.20;2.90;;;27.20;37.30;;;;;;5033877;28;20306;-78
2023/06/04 08:01:56;;;;;;;2.92;2.72;;;27.20;37.20;;;;;;5033037;28;20202;-78
2023/06/04 08:04:24;;;;;;;3.38;2.80;;;27.30;37.10;;;;;;5032905;28;20224;-78
2023/06/04 08:06:52;;;;;;;2.97;2.78;;;27.30;37.00;;;;;;5032852;28;20199;-77
2023/06/04 08:09:19;;;;;;;3.20;2.90;;;27.30;36.90;;;;;;5033565;28;20198;-78
2023/06/04 08:11:46;;;;;;;3.03;2.78;;;27.40;36.80;;;;;;5033484;28;20299;-78
2023/06/04 08:14:13;;;;;;;2.92;2.70;;;27.40;36.70;;;;;;5033401;28;20216;-78
2023/06/04 08:16:40;;;;;;;3.00;2.75;;;27.50;36.50;;;;;;5034169;28;20238;-78
2023/06/04 08:19:07;;;;;;;3.13;2.90;;;27.50;37.00;;;;;;5032871;28;20215;-78
2023/06/04 08:21:36;;;;;;;2.85;2.47;;;27.50;36.50;;;;;;5033133;28;20295;-78
2023/06/04 08:24:03;;;;;;;2.97;2.78;;;27.50;36.70;;;;;;5032880;28;20234;-78
2023/06/04 08:26:30;;;;;;;4.72;2.65;;;27.50;36.70;;;;;;5033101;28;20233;-78
2023/06/04 08:28:57;;;;;;;2.70;2.50;;;27.60;36.40;;;;;;5033034;28;20191;-78
2023/06/04 08:31:25;;;;;;;2.80;2.60;;;27.60;36.10;;;;;;5033327;28;20199;-78
2023/06/04 08:33:52;;;;;;;2.85;2.65;;;27.60;36.20;;;;;;5016660;28;20200;-78
2023/06/04 08:36:20;;;;;;;2.67;2.47;;;27.70;35.40;;;;;;5035217;28;20565;-78
2023/06/04 08:38:52;;;;;;;2.88;2.45;;;27.60;35.50;;;;;;5035748;28;20650;-78
2023/06/04 08:41:26;;;;;;;2.75;2.55;;;27.60;35.50;;;;;;5039798;28;20203;-78
2023/06/04 08:43:54;;;;;;;3.40;2.40;;;27.60;35.40;;;;;;5056862;28;20210;-78
2023/06/04 08:46:21;;;;;;;2.92;2.60;;;27.60;34.70;;;;;;5060327;28;20186;-78
2023/06/04 08:48:48;;;;;;;13.73;6.95;;;27.60;34.80;;;;;;5037462;28;20951;-78
2023/06/04 08:51:15;;;;;;;8.35;5.18;;;27.60;34.40;;;;;;5036464;28;20681;-78
2023/06/04 08:53:43;;;;;;;9.43;5.20;;;27.60;34.00;;;;;;5036600;28;20286;-78
2023/06/04 08:56:11;;;;;;;32.58;20.38;;;27.60;34.10;;;;;;5037210;28;20207;-78
2023/06/04 08:58:38;;;;;;;28.05;15.15;;;27.60;34.70;;;;;;5037468;28;20202;-77
2023/06/04 09:01:06;;;;;;;31.30;17.63;;;27.60;33.90;;;;;;5037835;28;20618;-77
2023/06/04 09:03:33;;;;;;;24.63;16.50;;;27.60;33.80;;;;;;5038848;28;20214;-78
2023/06/04 09:06:00;;;;;;;20.00;14.05;;;27.60;33.40;;;;;;5038876;28;20290;-78
2023/06/04 09:08:27;;;;;;;18.30;11.82;;;27.60;33.00;;;;;;5036411;28;20199;-77
2023/06/04 09:10:55;;;;;;;26.52;14.73;;;27.70;33.50;;;;;;5036758;28;20191;-78
2023/06/04 09:13:27;;;;;;;17.60;11.45;;;27.70;34.30;;;;;;5036746;28;20195;-78
2023/06/04 09:16:00;;;;;;;13.60;9.27;;;27.60;33.70;;;;;;5037529;28;20223;-78
2023/06/04 09:18:28;;;;;;;15.48;8.77;;;27.70;33.20;;;;;;5036948;28;20206;-79
2023/06/04 09:21:02;;;;;;;18.88;10.38;;;27.60;33.60;;;;;;5036844;28;20219;-78
2023/06/04 09:23:30;;;;;;;14.13;8.23;;;27.60;34.40;;;;;;5036981;28;20244;-78
2023/06/04 09:25:57;;;;;;;10.05;6.78;;;27.60;33.40;;;;;;5037510;28;20212;-78
2023/06/04 09:28:26;;;;;;;8.55;5.38;;;27.60;33.60;;;;;;5036458;28;20559;-78
2023/06/04 09:30:53;;;;;;;8.45;6.07;;;27.60;33.10;;;;;;5036142;28;20199;-78
2023/06/04 09:33:21;;;;;;;11.52;7.93;;;27.60;32.80;;;;;;5019950;28;20203;-78
2023/06/04 09:35:55;;;;;;;6.00;5.32;;;27.60;33.90;;;;;;5036433;28;20219;-78
2023/06/04 09:38:22;;;;;;;7.43;5.25;;;27.60;33.20;;;;;;5038244;28;20191;-78
2023/06/04 09:40:49;;;;;;;6.72;4.68;;;27.60;33.80;;;;;;5055910;22;20235;-80
2023/06/04 09:43:22;;;;;;;13.35;6.43;;;27.50;33.30;;;;;;5037555;28;20218;-80
2023/06/04 09:45:51;;;;;;;10.20;6.30;;;27.50;34.10;;;;;;5037506;28;20269;-80
2023/06/04 09:48:22;;;;;;;9.93;6.30;;;27.50;34.80;;;;;;5036820;28;20207;-81
2023/06/04 09:50:49;;;;;;;10.18;5.93;;;27.50;35.00;;;;;;5036428;28;20195;-81
2023/06/04 09:53:17;;;;;;;9.00;5.53;;;27.50;35.50;;;;;;5036533;28;20634;-81
2023/06/04 09:55:45;;;;;;;9.82;5.63;;;27.40;35.20;;;;;;5036711;28;20600;-81
2023/06/04 09:58:13;;;;;;;9.60;5.00;;;27.40;35.40;;;;;;5038648;28;20658;-81
2023/06/04 10:00:41;;;;;;;9.32;5.85;;;27.40;35.30;;;;;;5039205;28;20220;-81
2023/06/04 10:03:10;;;;;;;9.27;5.55;;;27.40;35.90;;;;;;5038965;28;20705;-80
2023/06/04 10:05:39;;;;;;;11.23;5.13;;;27.40;35.90;;;;;;5037195;28;20219;-80
2023/06/04 10:08:07;;;;;;;9.93;6.05;;;27.40;36.10;;;;;;5037796;28;20298;-80
2023/06/04 10:10:35;;;;;;;7.50;5.13;;;27.40;36.10;;;;;;5037496;28;20195;-81
2023/06/04 10:13:06;;;;;;;9.20;5.15;;;27.30;36.00;;;;;;5036890;28;20708;-81
2023/06/04 10:15:34;;;;;;;9.55;4.97;;;27.30;35.90;;;;;;5019627;28;20230;-81
2023/06/04 10:18:02;;;;;;;7.50;4.60;;;27.30;36.30;;;;;;5036218;28;20736;-81
2023/06/04 10:20:31;;;;;;;7.50;4.85;;;27.30;36.30;;;;;;5036689;28;20299;-81
2023/06/04 10:22:58;;;;;;;9.30;4.78;;;27.20;36.50;;;;;;5036724;28;20261;-81
2023/06/04 10:25:25;;;;;;;6.18;4.30;;;27.30;36.60;;;;;;5036161;28;20219;-81
2023/06/04 10:27:53;;;;;;;7.28;4.88;;;27.20;36.70;;;;;;5037819;28;20599;-81
2023/06/04 10:30:20;;;;;;;6.78;4.50;;;27.20;36.90;;;;;;5037180;28;20214;-81
2023/06/04 10:32:47;;;;;;;7.10;4.55;;;27.20;36.80;;;;;;5036445;28;20227;-81
2023/06/04 10:35:15;;;;;;;8.52;4.13;;;27.20;36.90;;;;;;5035820;28;20238;-81
2023/06/04 10:37:45;;;;;;;8.32;4.32;;;27.20;36.80;;;;;;5036483;28;20195;-81
2023/06/04 10:40:12;;;;;;;5.13;3.88;;;27.10;36.80;;;;;;5019444;28;20219;-81
2023/06/04 10:42:42;;;;;;;5.45;3.88;;;27.10;36.80;;;;;;5035516;28;20195;-81
2023/06/04 10:45:10;;;;;;;5.50;4.32;;;27.10;36.80;;;;;;5036700;28;20588;-81
2023/06/04 10:47:40;;;;;;;5.95;4.30;;;27.10;37.00;;;;;;5036408;28;20672;-81
2023/06/04 10:50:08;;;;;;;5.90;4.28;;;27.00;37.00;;;;;;5035600;28;20187;-81
2023/06/04 10:52:36;;;;;;;8.38;3.95;;;27.00;37.10;;;;;;5036197;28;20541;-81
2023/06/04 10:55:06;;;;;;;6.03;4.10;;;27.00;37.00;;;;;;5036538;28;20241;-81
2023/06/04 10:57:33;;;;;;;4.93;4.20;;;27.00;37.10;;;;;;5035955;28;20196;-81
2023/06/04 11:00:03;;;;;;;4.90;3.85;;;27.00;36.90;;;;;;5018598;28;20223;-81
2023/06/04 11:02:30;;;;;;;5.13;4.25;;;26.90;36.70;;;;;;5017960;28;20581;-81
2023/06/04 11:05:05;;;;;;;4.68;3.80;;;27.00;36.70;;;;;;5034881;28;20688;-82
2023/06/04 11:07:42;;;;;;;5.15;4.00;;;26.90;36.70;;;;;;5035020;28;20205;-82
2023/06/04 11:10:11;;;;;;;6.03;3.60;;;26.90;36.50;;;;;;5034860;28;20249;-82
2023/06/04 11:12:45;;;;;;;4.57;3.75;;;26.90;36.60;;;;;;5034481;28;20668;-82
2023/06/04 11:15:12;;;;;;;4.10;3.70;;;26.90;36.60;;;;;;5018329;28;20296;-81
2023/06/04 11:17:49;;;;;;;5.82;3.97;;;26.90;36.40;;;;;;5034620;28;20249;-81
2023/06/04 11:20:17;;;;;;;5.80;3.92;;;26.90;36.40;;;;;;5034456;28;20243;-81
2023/06/04 11:22:51;;;;;;;5.55;3.78;;;26.90;36.40;;;;;;5034489;28;20215;-81
2023/06/04 11:25:22;;;;;;;4.60;3.78;;;26.90;36.40;;;;;;5036689;28;20207;-81
2023/06/04 11:27:49;;;;;;;6.32;3.70;;;26.90;36.40;;;;;;5034880;28;20322;-81
2023/06/04 11:30:17;;;;;;;4.50;3.33;;;26.90;36.40;;;;;;5039365;28;20202;-82
2023/06/04 11:32:44;;;;;;;4.88;3.60;;;26.90;36.40;;;;;;5039439;28;20192;-82
2023/06/04 11:35:12;;;;;;;4.82;3.70;;;26.80;36.40;;;;;;5040765;28;20537;-82
2023/06/04 11:37:39;;;;;;;4.47;3.60;;;26.80;36.40;;;;;;5046823;28;20219;-82
2023/06/04 11:40:17;;;;;;;4.30;3.90;;;26.80;36.40;;;;;;5045593;28;20296;-81
2023/06/04 11:42:45;;;;;;;5.80;3.97;;;26.80;32.80;;;;;;5047057;28;20267;-81
2023/06/04 11:45:13;;;;;;;5.28;3.63;;;26.70;34.20;;;;;;5046931;28;20223;-81
2023/06/04 11:47:40;;;;;;;4.97;3.65;;;26.60;34.70;;;;;;5045922;28;20215;-81
2023/06/04 11:50:10;;;;;;;5.95;3.50;;;26.60;35.20;;;;;;5045268;28;20231;-81
2023/06/04 11:52:37;;;;;;;5.63;3.72;;;26.60;35.40;;;;;;5036942;28;20195;-81
2023/06/04 11:55:06;;;;;;;3.60;3.30;;;26.60;35.50;;;;;;5019299;28;20303;-81
2023/06/04 11:57:33;;;;;;;4.63;3.65;;;26.70;35.70;;;;;;5034765;28;20833;-81
2023/06/04 12:00:01;;;;;;;3.50;3.13;;;26.70;35.80;;;;;;5018164;28;20206;-81
2023/06/04 12:02:31;;;;;;;6.10;3.90;;;26.60;35.60;;;;;;5035844;28;20191;-81
2023/06/04 12:04:57;;;;;;;4.03;3.63;;;26.70;35.80;;;;;;5042400;28;20218;-81
2023/06/04 12:07:25;;;;;;;3.75;3.45;;;26.70;35.70;;;;;;5017616;28;20195;-81
2023/06/04 12:09:52;;;;;;;5.00;3.20;;;26.60;35.60;;;;;;5034248;28;20207;-81
2023/06/04 12:12:22;;;;;;;4.07;3.63;;;26.60;35.60;;;;;;5033847;28;20188;-81
2023/06/04 12:14:57;;;;;;;5.90;3.72;;;26.60;35.50;;;;;;5035506;28;20239;-81
2023/06/04 12:17:26;;;;;;;6.43;3.72;;;26.60;35.70;;;;;;5020344;28;20199;-81
2023/06/04 12:19:54;;;;;;;4.63;3.38;;;26.60;35.80;;;;;;5037237;28;20202;-81
2023/06/04 12:22:21;;;;;;;3.70;3.40;;;26.60;35.80;;;;;;5037258;28;20219;-81
2023/06/04 12:24:49;;;;;;;4.43;3.60;;;26.60;36.00;;;;;;5038890;28;20227;-81
2023/06/04 12:27:16;;;;;;;3.42;3.13;;;26.60;36.00;;;;;;5038975;28;20237;-81
2023/06/04 12:29:44;;;;;;;4.47;3.10;;;26.50;36.00;;;;;;5038192;28;20210;-81
2023/06/04 12:32:12;;;;;;;3.63;3.33;;;26.50;36.10;;;;;;5036883;28;20684;-81
2023/06/04 12:34:41;;;;;;;4.85;3.45;;;26.50;36.80;;;;;;5038329;28;20219;-82
2023/06/04 12:37:08;;;;;;;3.22;2.92;;;26.50;36.20;;;;;;5039114;28;20294;-81
2023/06/04 12:39:36;;;;;;;3.83;3.47;;;26.50;36.20;;;;;;5039009;28;20198;-81
2023/06/04 12:42:04;;;;;;;3.50;3.20;;;26.50;36.20;;;;;;5038846;28;20254;-82
2023/06/04 12:44:32;;;;;;;4.10;3.60;;;26.50;36.30;;;;;;5038713;28;20287;-81
2023/06/04 12:46:59;;;;;;;3.45;3.13;;;26.40;36.20;;;;;;5038659;28;20222;-81
2023/06/04 12:49:25;;;;;;;3.80;3.30;;;26.40;36.20;;;;;;5038359;28;20203;-82